createdAt,value
2022-09-16T00:00:31.544Z,16.04
2022-09-16T00:02:58.930Z,16.02
2022-09-16T00:05:26.290Z,16.03
2022-09-16T00:07:54.136Z,15.97
2022-09-16T00:10:21.396Z,16.01
2022-09-16T00:12:49.070Z,16.08
2022-09-16T00:15:15.984Z,16.08
2022-09-16T00:17:42.674Z,16.14
2022-09-16T00:20:09.536Z,16.21
2022-09-16T00:22:36.220Z,16.27
2022-09-16T00:25:02.942Z,16.31
2022-09-16T00:27:29.726Z,16.29
2022-09-16T00:29:56.386Z,16.29
2022-09-16T00:32:25.037Z,16.30
2022-09-16T00:34:52.260Z,16.32
2022-09-16T00:37:19.111Z,16.33
2022-09-16T00:39:49.118Z,16.37
2022-09-16T00:42:17.023Z,16.31
2022-09-16T00:45:05.150Z,16.29
2022-09-16T00:47:34.839Z,16.23
2022-09-16T00:50:22.683Z,16.26
2022-09-16T00:52:50.622Z,16.30
2022-09-16T00:55:21.862Z,16.37
2022-09-16T00:57:49.326Z,16.45
2022-09-16T01:00:16.478Z,16.50
2022-09-16T01:02:44.451Z,16.54
2022-09-16T01:05:16.700Z,16.54
2022-09-16T01:07:49.157Z,16.54
2022-09-16T01:10:21.766Z,16.54
2022-09-16T01:12:57.544Z,16.55
2022-09-16T01:15:34.583Z,16.56
2022-09-16T01:18:10.429Z,16.32
2022-09-16T01:20:59.818Z,16.13
2022-09-16T01:24:01.450Z,16.20
2022-09-16T01:26:33.771Z,16.29
2022-09-16T01:29:09.468Z,16.35
2022-09-16T01:31:55.437Z,16.42
2022-09-16T01:34:44.319Z,16.46
2022-09-16T01:37:35.073Z,16.55
2022-09-16T01:40:28.510Z,16.54
2022-09-16T01:43:12.749Z,16.54
2022-09-16T01:46:05.370Z,16.56
2022-09-16T01:48:36.961Z,16.58
2022-09-16T01:51:13.858Z,16.59
2022-09-16T01:53:48.869Z,16.58
2022-09-16T01:56:22.588Z,16.57
2022-09-16T01:58:57.841Z,16.58
2022-09-16T02:01:49.264Z,16.53
2022-09-16T02:04:20.376Z,16.44
2022-09-16T02:06:49.202Z,16.49
2022-09-16T02:09:47.050Z,16.58
2022-09-16T02:12:18.874Z,16.61
2022-09-16T02:14:46.182Z,16.64
2022-09-16T02:17:18.874Z,16.59
2022-09-16T02:19:55.590Z,16.56
2022-09-16T02:22:28.306Z,16.58
2022-09-16T02:24:55.133Z,16.64
2022-09-16T02:27:23.140Z,16.67
2022-09-16T02:30:05.515Z,16.60
2022-09-16T02:32:34.406Z,16.51
2022-09-16T02:35:02.440Z,16.50
2022-09-16T02:37:43.129Z,16.58
2022-09-16T02:40:20.534Z,16.62
2022-09-16T02:42:47.387Z,16.62
2022-09-16T02:45:14.160Z,16.52
2022-09-16T02:48:13.698Z,16.47
2022-09-16T02:50:48.150Z,16.44
2022-09-16T02:53:46.616Z,16.53
2022-09-16T02:56:30.545Z,16.63
2022-09-16T02:58:57.575Z,16.68
2022-09-16T03:01:25.199Z,16.68
2022-09-16T03:03:55.602Z,16.68
2022-09-16T03:06:26.308Z,16.70
2022-09-16T03:08:55.720Z,16.72
2022-09-16T03:11:40.662Z,16.72
2022-09-16T03:14:32.641Z,16.75
2022-09-16T03:16:59.835Z,16.75
2022-09-16T03:20:10.529Z,16.76
2022-09-16T03:22:37.381Z,16.82
2022-09-16T03:25:24.417Z,16.77
2022-09-16T03:27:55.748Z,16.75
2022-09-16T03:30:22.473Z,16.73
2022-09-16T03:32:50.038Z,16.77
2022-09-16T03:35:33.237Z,16.77
2022-09-16T03:38:01.319Z,16.81
2022-09-16T03:40:29.854Z,16.75
2022-09-16T03:42:57.890Z,16.79
2022-09-16T03:45:24.928Z,16.82
2022-09-16T03:47:52.845Z,16.83
2022-09-16T03:50:20.692Z,16.86
2022-09-16T03:52:47.590Z,16.88
2022-09-16T03:55:14.395Z,16.91
2022-09-16T03:57:41.490Z,16.91
2022-09-16T04:00:17.648Z,16.86
2022-09-16T04:02:45.211Z,16.87
2022-09-16T04:05:11.919Z,16.87
2022-09-16T04:07:38.676Z,16.89
2022-09-16T04:10:06.871Z,16.92
2022-09-16T04:12:33.949Z,16.90
2022-09-16T04:15:01.109Z,16.89
2022-09-16T04:17:27.994Z,16.92
2022-09-16T04:19:54.622Z,16.96
2022-09-16T04:22:21.310Z,16.97
2022-09-16T04:24:51.395Z,16.98
2022-09-16T04:27:18.166Z,16.98
2022-09-16T04:29:44.828Z,16.93
2022-09-16T04:32:11.613Z,16.95
2022-09-16T04:34:38.295Z,16.96
2022-09-16T04:37:04.990Z,16.94
2022-09-16T04:39:31.930Z,16.97
2022-09-16T04:41:59.996Z,17.01
2022-09-16T04:44:27.164Z,17.05
2022-09-16T04:46:54.125Z,17.08
2022-09-16T04:49:20.841Z,17.08
2022-09-16T04:51:47.700Z,17.06
2022-09-16T04:54:14.461Z,17.08
2022-09-16T04:56:41.199Z,17.01
2022-09-16T04:59:07.853Z,16.93
2022-09-16T05:01:37.735Z,16.67
2022-09-16T05:04:06.482Z,16.43
2022-09-16T05:06:35.585Z,16.29
2022-09-16T05:09:02.942Z,16.24
2022-09-16T05:11:32.238Z,16.29
2022-09-16T05:14:00.367Z,16.28
2022-09-16T05:16:27.878Z,16.27
2022-09-16T05:18:57.142Z,16.20
2022-09-16T05:21:26.048Z,16.16
2022-09-16T05:23:53.233Z,16.10
2022-09-16T05:26:22.859Z,16.03
2022-09-16T05:28:53.013Z,16.07
2022-09-16T05:31:22.581Z,16.07
2022-09-16T05:34:03.812Z,16.08
2022-09-16T05:36:34.856Z,16.07
2022-09-16T05:39:22.083Z,16.19
2022-09-16T05:41:49.643Z,16.24
2022-09-16T05:44:16.327Z,16.27
2022-09-16T05:46:43.836Z,16.24
2022-09-16T05:49:10.882Z,16.15
2022-09-16T05:51:39.312Z,16.13
2022-09-16T05:54:06.339Z,16.18
2022-09-16T05:56:33.226Z,16.32
2022-09-16T05:59:00.861Z,16.41
2022-09-16T06:01:33.462Z,16.43
2022-09-16T06:04:06.488Z,16.45
2022-09-16T06:06:34.480Z,16.52
2022-09-16T06:09:08.848Z,16.50
2022-09-16T06:11:38.202Z,16.54
2022-09-16T06:14:06.124Z,16.53
2022-09-16T06:16:33.202Z,16.55
2022-09-16T06:19:01.251Z,16.58
2022-09-16T06:21:28.654Z,16.68
2022-09-16T06:23:56.343Z,16.80
2022-09-16T06:26:25.380Z,16.89
2022-09-16T06:28:53.823Z,16.98
2022-09-16T06:31:26.464Z,17.01
2022-09-16T06:33:54.160Z,17.07
2022-09-16T06:36:25.923Z,17.11
2022-09-16T06:38:52.716Z,17.17
2022-09-16T06:41:20.673Z,17.20
2022-09-16T06:43:48.451Z,17.21
2022-09-16T06:46:17.818Z,17.20
2022-09-16T06:48:52.467Z,17.24
2022-09-16T06:51:25.833Z,17.25
2022-09-16T06:53:54.057Z,17.23
2022-09-16T06:56:29.481Z,17.26
2022-09-16T06:58:57.538Z,17.32
2022-09-16T07:01:26.832Z,17.40
2022-09-16T07:03:54.332Z,17.45
2022-09-16T07:06:37.276Z,17.50
2022-09-16T07:09:11.474Z,17.56
2022-09-16T07:11:38.169Z,17.44
2022-09-16T07:14:05.093Z,17.35
2022-09-16T07:16:31.818Z,17.35
2022-09-16T07:19:01.058Z,17.38
2022-09-16T07:21:30.321Z,17.35
2022-09-16T07:24:02.538Z,17.29
2022-09-16T07:26:31.184Z,17.27
2022-09-16T07:29:00.679Z,17.25
2022-09-16T07:31:29.306Z,17.27
2022-09-16T07:34:02.858Z,17.31
2022-09-16T07:36:36.649Z,17.34
2022-09-16T07:39:04.381Z,17.39
2022-09-16T07:41:34.090Z,17.44
2022-09-16T07:44:01.323Z,17.55
2022-09-16T07:46:30.005Z,17.56
2022-09-16T07:48:58.362Z,17.46
2022-09-16T07:51:25.910Z,17.40
2022-09-16T07:53:59.311Z,17.37
2022-09-16T07:56:29.061Z,17.46
2022-09-16T07:58:56.894Z,17.51
2022-09-16T08:01:24.039Z,17.37
2022-09-16T08:03:50.834Z,17.25
2022-09-16T08:06:23.269Z,17.21
2022-09-16T08:08:54.849Z,17.23
2022-09-16T08:11:22.201Z,17.30
2022-09-16T08:13:49.452Z,17.44
2022-09-16T08:16:21.392Z,17.54
2022-09-16T08:18:50.098Z,17.61
2022-09-16T08:21:20.433Z,17.57
2022-09-16T08:23:47.121Z,17.56
2022-09-16T08:26:14.663Z,17.46
2022-09-16T08:28:50.908Z,17.42
2022-09-16T08:31:24.621Z,17.36
2022-09-16T08:33:51.374Z,17.27
2022-09-16T08:36:21.275Z,17.38
2022-09-16T08:38:51.022Z,17.55
2022-09-16T08:41:45.530Z,17.77
2022-09-16T08:44:29.141Z,18.11
2022-09-16T08:47:02.121Z,18.40
2022-09-16T08:49:44.008Z,18.50
2022-09-16T08:52:34.582Z,18.52
2022-09-16T08:55:15.072Z,18.51
2022-09-16T08:57:43.478Z,18.73
2022-09-16T09:00:16.533Z,18.88
2022-09-16T09:03:12.381Z,18.93
2022-09-16T09:05:57.074Z,18.87
2022-09-16T09:08:45.152Z,18.91
2022-09-16T09:11:27.117Z,18.97
2022-09-16T09:14:08.695Z,18.82
2022-09-16T09:16:48.174Z,18.70
2022-09-16T09:19:20.717Z,18.71
2022-09-16T09:22:13.811Z,18.79
2022-09-16T09:25:08.489Z,19.10
2022-09-16T09:27:40.763Z,19.34
2022-09-16T09:30:22.244Z,19.49
2022-09-16T09:33:27.764Z,19.27
2022-09-16T09:36:06.870Z,19.39
2022-09-16T09:38:42.657Z,19.68
2022-09-16T09:51:44.788Z,20.01
2022-09-16T09:54:25.978Z,20.06
2022-09-16T09:57:21.086Z,20.17
2022-09-16T10:00:04.917Z,20.08
2022-09-16T10:02:41.337Z,20.02
2022-09-16T10:05:23.322Z,19.94
2022-09-16T10:07:51.809Z,19.64
2022-09-16T10:10:26.106Z,19.32
2022-09-16T10:12:53.986Z,19.17
2022-09-16T10:15:30.199Z,18.87
2022-09-16T10:17:59.550Z,18.49
2022-09-16T10:20:34.283Z,18.21
2022-09-16T10:23:04.550Z,18.19
2022-09-16T10:25:32.818Z,18.42
2022-09-16T10:28:19.961Z,18.73
2022-09-16T10:30:49.699Z,18.87
2022-09-16T10:33:24.164Z,18.93
2022-09-16T10:35:58.231Z,19.00
2022-09-16T10:38:27.677Z,19.16
2022-09-16T10:41:20.010Z,19.09
2022-09-16T10:43:53.661Z,18.82
2022-09-16T10:46:21.084Z,18.65
2022-09-16T10:48:49.391Z,18.52
2022-09-16T10:51:24.258Z,18.49
2022-09-16T10:54:00.509Z,18.48
2022-09-16T10:56:33.766Z,18.35
2022-09-16T10:59:10.214Z,18.18
2022-09-16T11:01:45.227Z,18.13
2022-09-16T11:04:48.921Z,18.00
2022-09-16T11:07:38.727Z,17.86
2022-09-16T11:10:23.381Z,17.96
2022-09-16T11:13:15.001Z,18.16
2022-09-16T11:15:47.390Z,18.28
2022-09-16T11:18:38.829Z,18.31
2022-09-16T11:21:15.331Z,18.42
2022-09-16T11:24:13.642Z,18.76
2022-09-16T11:26:46.026Z,19.04
2022-09-16T11:29:18.910Z,19.25
2022-09-16T11:32:00.032Z,19.37
2022-09-16T11:34:51.582Z,19.29
2022-09-16T11:37:24.091Z,19.18
2022-09-16T11:39:57.478Z,19.42
2022-09-16T11:42:46.733Z,19.70
2022-09-16T11:45:26.430Z,19.79
2022-09-16T11:48:12.126Z,19.64
2022-09-16T11:50:38.915Z,19.58
2022-09-16T11:53:39.039Z,19.52
2022-09-16T11:56:42.830Z,19.52
2022-09-16T11:59:19.296Z,19.61
2022-09-16T12:01:50.382Z,19.58
2022-09-16T12:04:20.160Z,19.51
2022-09-16T12:06:55.400Z,19.52
2022-09-16T12:09:32.048Z,19.47
2022-09-16T12:12:09.418Z,19.44
2022-09-16T12:14:40.774Z,19.49
2022-09-16T12:17:27.862Z,19.42
2022-09-16T12:19:59.398Z,19.43
2022-09-16T12:22:30.652Z,19.54
2022-09-16T12:25:00.309Z,19.81
2022-09-16T12:27:34.150Z,20.16
2022-09-16T12:30:13.128Z,20.29
2022-09-16T12:32:55.480Z,20.47
2022-09-16T12:35:34.647Z,20.50
2022-09-16T12:38:02.085Z,20.38
2022-09-16T12:41:09.146Z,20.47
2022-09-16T12:44:02.252Z,20.57
2022-09-16T12:46:42.431Z,20.69
2022-09-16T12:49:37.438Z,20.77
2022-09-16T12:52:13.558Z,20.79
2022-09-16T12:55:06.613Z,20.49
2022-09-16T12:57:41.504Z,20.21
2022-09-16T13:00:27.269Z,20.23
2022-09-16T13:02:57.968Z,20.44
2022-09-16T13:05:34.348Z,20.60
2022-09-16T13:08:05.419Z,20.56
2022-09-16T13:10:54.668Z,20.75
2022-09-16T13:13:30.194Z,21.02
2022-09-16T13:15:58.211Z,20.97
2022-09-16T13:18:38.336Z,20.95
2022-09-16T13:21:24.022Z,21.11
2022-09-16T13:24:32.706Z,21.16
2022-09-16T13:26:59.675Z,21.16
2022-09-16T13:29:46.264Z,21.11
2022-09-16T13:32:38.639Z,20.84
2022-09-16T13:35:18.923Z,20.57
2022-09-16T13:37:49.966Z,20.45
2022-09-16T13:40:29.548Z,20.53
2022-09-16T13:43:09.121Z,20.63
2022-09-16T13:45:39.762Z,20.72
2022-09-16T13:48:20.397Z,20.93
2022-09-16T13:50:51.839Z,21.29
2022-09-16T13:53:31.946Z,21.58
2022-09-16T13:56:29.585Z,21.85
2022-09-16T13:59:31.539Z,21.92
2022-09-16T14:02:08.289Z,21.77
2022-09-16T14:05:10.037Z,21.59
2022-09-16T14:07:55.791Z,21.70
2022-09-16T14:10:47.718Z,21.38
2022-09-16T14:13:17.605Z,21.17
2022-09-16T14:15:48.380Z,21.13
2022-09-16T14:18:23.126Z,21.11
2022-09-16T14:20:55.323Z,20.96
2022-09-16T14:23:24.295Z,20.79
2022-09-16T14:25:55.314Z,20.79
2022-09-16T14:28:27.305Z,20.61
2022-09-16T14:31:00.800Z,20.56
2022-09-16T14:33:30.500Z,20.68
2022-09-16T14:35:58.052Z,20.72
2022-09-16T14:38:51.841Z,20.76
2022-09-16T14:41:27.074Z,20.97
2022-09-16T14:43:55.017Z,21.08
2022-09-16T14:46:21.683Z,21.19
2022-09-16T14:48:48.637Z,21.27
2022-09-16T14:51:26.261Z,21.22
2022-09-16T14:54:13.763Z,21.23
2022-09-16T14:56:40.994Z,21.32
2022-09-16T14:59:10.819Z,21.40
2022-09-16T15:01:38.044Z,21.16
2022-09-16T15:04:14.828Z,21.06
2022-09-16T15:06:47.283Z,21.06
2022-09-16T15:09:32.230Z,21.18
2022-09-16T15:11:59.939Z,20.97
2022-09-16T15:14:26.923Z,20.66
2022-09-16T15:16:57.370Z,20.48
2022-09-16T15:19:27.573Z,20.35
2022-09-16T15:21:55.447Z,20.32
2022-09-16T15:24:28.964Z,20.26
2022-09-16T15:26:56.292Z,20.36
2022-09-16T15:29:22.880Z,20.58
2022-09-16T15:31:50.776Z,20.71
2022-09-16T15:34:23.342Z,21.22
2022-09-16T15:36:58.894Z,25.17
2022-09-16T15:39:29.560Z,28.65
2022-09-16T15:42:28.759Z,25.88
2022-09-16T15:44:58.202Z,23.81
2022-09-16T15:47:27.395Z,23.67
2022-09-16T15:49:59.411Z,22.75
2022-09-16T15:52:26.447Z,23.43
2022-09-16T15:55:00.252Z,29.56
2022-09-16T15:57:32.387Z,36.17
2022-09-16T16:00:12.163Z,34.75
2022-09-16T16:03:00.662Z,30.68
2022-09-16T16:05:32.159Z,27.35
2022-09-16T16:08:09.764Z,24.94
2022-09-16T16:10:40.598Z,23.17
2022-09-16T16:13:07.643Z,22.15
2022-09-16T16:15:35.865Z,21.06
2022-09-16T16:18:06.408Z,20.36
2022-09-16T16:20:34.691Z,19.58
2022-09-16T16:23:01.941Z,18.68
2022-09-16T16:25:29.498Z,18.16
2022-09-16T16:27:56.343Z,17.89
2022-09-16T16:30:23.007Z,17.79
2022-09-16T16:32:49.830Z,17.57
2022-09-16T16:35:16.519Z,17.46
2022-09-16T16:37:47.384Z,17.28
2022-09-16T16:40:15.285Z,17.20
2022-09-16T16:42:43.844Z,17.17
2022-09-16T16:45:13.208Z,17.07
2022-09-16T16:47:40.168Z,17.11
2022-09-16T16:50:07.188Z,17.33
2022-09-16T16:52:33.896Z,17.45
2022-09-16T16:55:00.929Z,17.42
2022-09-16T16:57:28.110Z,17.46
2022-09-16T16:59:54.839Z,17.53
2022-09-16T17:02:21.658Z,17.51
2022-09-16T17:04:48.354Z,17.48
2022-09-16T17:07:25.575Z,17.54
2022-09-16T17:09:53.947Z,17.44
2022-09-16T17:12:20.778Z,17.29
2022-09-16T17:14:50.129Z,17.14
2022-09-16T17:17:17.193Z,17.05
2022-09-16T17:19:43.941Z,16.94
2022-09-16T17:22:11.102Z,16.88
2022-09-16T17:24:37.804Z,16.68
2022-09-16T17:27:04.657Z,16.45
2022-09-16T17:29:31.480Z,16.29
2022-09-16T17:32:00.682Z,16.06
2022-09-16T17:34:27.624Z,15.92
2022-09-16T17:36:54.648Z,15.96
2022-09-16T17:39:22.037Z,15.89
2022-09-16T17:41:49.762Z,15.89
2022-09-16T17:44:17.597Z,15.92
2022-09-16T17:46:45.057Z,15.90
2022-09-16T17:49:17.830Z,15.77
2022-09-16T17:51:45.636Z,15.76
2022-09-16T17:54:12.735Z,15.75
2022-09-16T17:56:41.090Z,15.74
2022-09-16T17:59:07.935Z,15.73
2022-09-16T18:01:35.245Z,15.75
2022-09-16T18:04:02.444Z,15.76
2022-09-16T18:06:31.524Z,15.76
2022-09-16T18:09:03.833Z,15.76
2022-09-16T18:11:30.983Z,15.82
2022-09-16T18:14:00.039Z,15.79
2022-09-16T18:16:28.223Z,15.86
2022-09-16T18:18:56.826Z,15.91
2022-09-16T18:21:24.555Z,15.84
2022-09-16T18:23:56.599Z,15.77
2022-09-16T18:26:24.309Z,15.71
2022-09-16T18:29:09.143Z,15.63
2022-09-16T18:31:37.191Z,15.67
2022-09-16T18:34:04.038Z,15.68
2022-09-16T18:36:32.689Z,15.74
2022-09-16T18:38:59.580Z,15.67
2022-09-16T18:41:31.102Z,15.61
2022-09-16T18:44:00.539Z,15.63
2022-09-16T18:46:27.990Z,15.60
2022-09-16T18:48:55.186Z,15.59
2022-09-16T18:51:33.343Z,15.56
2022-09-16T18:54:02.360Z,15.60
2022-09-16T18:56:32.059Z,15.56
2022-09-16T18:59:23.050Z,15.57
2022-09-16T19:01:52.039Z,15.52
2022-09-16T19:04:20.730Z,15.50
2022-09-16T19:06:49.926Z,15.40
2022-09-16T19:09:18.653Z,15.35
2022-09-16T19:11:45.969Z,15.37
2022-09-16T19:14:14.223Z,15.43
2022-09-16T19:16:45.157Z,15.44
2022-09-16T19:19:13.836Z,15.40
2022-09-16T19:21:42.089Z,15.46
2022-09-16T19:24:14.271Z,15.49
2022-09-16T19:26:42.187Z,15.52
2022-09-16T19:29:10.066Z,15.55
2022-09-16T19:31:39.286Z,15.54
2022-09-16T19:34:06.274Z,15.48
2022-09-16T19:36:34.571Z,15.42
2022-09-16T19:39:01.283Z,15.42
2022-09-16T19:41:30.949Z,15.39
2022-09-16T19:44:02.968Z,15.38
2022-09-16T19:46:32.706Z,15.38
2022-09-16T19:48:59.385Z,15.30
2022-09-16T19:51:31.515Z,15.30
2022-09-16T19:54:03.917Z,15.32
2022-09-16T19:56:38.194Z,15.35
2022-09-16T19:59:09.830Z,15.37
2022-09-16T20:01:37.725Z,15.37
2022-09-16T20:04:08.369Z,15.33
2022-09-16T20:06:40.759Z,15.31
2022-09-16T20:09:11.610Z,15.31
2022-09-16T20:11:43.704Z,15.32
2022-09-16T20:14:16.258Z,15.31
2022-09-16T20:16:43.959Z,15.30
2022-09-16T20:19:14.525Z,15.24
2022-09-16T20:21:42.371Z,15.24
2022-09-16T20:24:14.714Z,15.25
2022-09-16T20:26:41.558Z,15.22
2022-09-16T20:29:08.244Z,15.11
2022-09-16T20:31:36.700Z,15.06
2022-09-16T20:34:04.136Z,15.09
2022-09-16T20:36:32.358Z,15.11
2022-09-16T20:39:00.212Z,15.04
2022-09-16T20:41:29.558Z,15.06
2022-09-16T20:43:56.810Z,15.12
2022-09-16T20:46:26.134Z,15.18
2022-09-16T20:48:57.072Z,15.21
2022-09-16T20:51:26.001Z,15.22
2022-09-16T20:54:04.967Z,15.25
2022-09-16T20:56:38.080Z,15.28
2022-09-16T20:59:09.806Z,15.19
2022-09-16T21:01:37.961Z,15.12
2022-09-16T21:04:11.776Z,15.12
2022-09-16T21:06:38.842Z,15.14
2022-09-16T21:09:08.225Z,15.16
2022-09-16T21:11:35.687Z,15.15
2022-09-16T21:14:09.032Z,15.17
2022-09-16T21:16:37.668Z,15.11
2022-09-16T21:19:09.311Z,15.06
2022-09-16T21:21:40.925Z,15.02
2022-09-16T21:24:08.529Z,14.96
2022-09-16T21:26:36.929Z,14.87
2022-09-16T21:29:05.825Z,14.74
2022-09-16T21:31:34.064Z,14.65
2022-09-16T21:34:03.105Z,14.58
2022-09-16T21:36:30.679Z,14.59
2022-09-16T21:38:57.902Z,14.59
2022-09-16T21:41:25.274Z,14.57
2022-09-16T21:43:55.549Z,14.48
2022-09-16T21:46:28.356Z,14.45
2022-09-16T21:49:03.051Z,14.37
2022-09-16T21:51:35.142Z,14.26
2022-09-16T21:54:06.730Z,14.21
2022-09-16T21:56:33.973Z,14.12
2022-09-16T21:59:00.850Z,14.01
2022-09-16T22:01:30.364Z,13.98
2022-09-16T22:04:02.330Z,13.98
2022-09-16T22:06:29.767Z,14.00
2022-09-16T22:08:59.260Z,14.00
2022-09-16T22:11:28.390Z,13.96
2022-09-16T22:13:56.178Z,13.97
2022-09-16T22:16:28.809Z,13.99
2022-09-16T22:19:04.959Z,14.01
2022-09-16T22:21:33.091Z,14.00
2022-09-16T22:24:00.514Z,14.04
2022-09-16T22:26:28.315Z,13.97
2022-09-16T22:28:55.600Z,13.96
2022-09-16T22:31:27.865Z,14.01
2022-09-16T22:33:56.297Z,14.06
2022-09-16T22:36:29.851Z,14.07
2022-09-16T22:39:04.663Z,14.09
2022-09-16T22:41:31.704Z,14.10
2022-09-16T22:43:58.717Z,14.08
2022-09-16T22:46:31.849Z,14.06
2022-09-16T22:48:59.374Z,14.01
2022-09-16T22:51:27.227Z,13.93
2022-09-16T22:53:54.655Z,13.91
2022-09-16T22:56:25.065Z,13.86
2022-09-16T22:58:53.700Z,13.78
2022-09-16T23:01:23.177Z,13.69
2022-09-16T23:03:53.855Z,13.63
2022-09-16T23:06:21.537Z,13.55
2022-09-16T23:08:48.350Z,13.50
2022-09-16T23:11:17.487Z,13.45
2022-09-16T23:13:45.294Z,13.36
2022-09-16T23:16:15.930Z,13.39
2022-09-16T23:18:44.119Z,13.44
2022-09-16T23:21:12.899Z,13.43
2022-09-16T23:23:41.851Z,13.43
2022-09-16T23:26:11.897Z,13.45
2022-09-16T23:28:38.843Z,13.52
2022-09-16T23:31:07.925Z,13.52
2022-09-16T23:33:34.848Z,13.49
2022-09-16T23:36:02.025Z,13.48
2022-09-16T23:38:29.055Z,13.48
2022-09-16T23:40:55.775Z,13.46
2022-09-16T23:43:24.529Z,13.46
2022-09-16T23:45:51.610Z,13.48
2022-09-16T23:48:18.914Z,13.44
2022-09-16T23:50:46.688Z,13.40
2022-09-16T23:53:14.106Z,13.39
2022-09-16T23:55:44.257Z,13.38
2022-09-16T23:58:11.614Z,13.36
